createdAt,value
2017-01-22T00:00:08.921Z,44.52
2017-01-22T00:00:49.554Z,44.52
2017-01-22T00:01:30.214Z,44.43
2017-01-22T00:02:10.851Z,44.52
2017-01-22T00:02:51.573Z,44.43
2017-01-22T00:03:32.241Z,44.62
2017-01-22T00:04:12.866Z,44.52
2017-01-22T00:04:53.574Z,44.52
2017-01-22T00:05:34.261Z,44.62
2017-01-22T00:06:14.910Z,44.52
2017-01-22T00:06:55.554Z,44.52
2017-01-22T00:07:36.223Z,44.04
2017-01-22T00:08:16.867Z,44.13
2017-01-22T00:08:57.505Z,44.71
2017-01-22T00:09:38.158Z,44.62
2017-01-22T00:10:18.786Z,44.71
2017-01-22T00:10:59.417Z,44.52
2017-01-22T00:11:40.078Z,44.62
2017-01-22T00:12:20.789Z,44.71
2017-01-22T00:13:01.386Z,44.23
2017-01-22T00:13:42.021Z,44.04
2017-01-22T00:14:22.651Z,44.71
2017-01-22T00:15:03.382Z,44.52
2017-01-22T00:15:44.167Z,44.52
2017-01-22T00:16:24.896Z,44.62
2017-01-22T00:17:05.523Z,44.62
2017-01-22T00:17:46.198Z,44.52
2017-01-22T00:18:26.857Z,44.52
2017-01-22T00:19:07.493Z,44.62
2017-01-22T00:19:48.117Z,44.52
2017-01-22T00:20:28.800Z,44.43
2017-01-22T00:21:09.470Z,44.43
2017-01-22T00:21:50.110Z,44.81
2017-01-22T00:22:30.882Z,44.43
2017-01-22T00:23:11.534Z,44.52
2017-01-22T00:23:52.161Z,44.43
2017-01-22T00:24:32.889Z,44.62
2017-01-22T00:25:13.569Z,44.52
2017-01-22T00:25:54.207Z,44.52
2017-01-22T00:26:34.848Z,44.52
2017-01-22T00:27:15.507Z,44.43
2017-01-22T00:27:56.134Z,44.43
2017-01-22T00:28:36.776Z,44.62
2017-01-22T00:29:17.534Z,44.62
2017-01-22T00:29:58.167Z,44.43
2017-01-22T00:30:38.897Z,44.43
2017-01-22T00:31:19.563Z,44.52
2017-01-22T00:32:00.254Z,44.52
2017-01-22T00:32:40.932Z,44.43
2017-01-22T00:33:21.709Z,44.43
2017-01-22T00:34:02.359Z,44.52
2017-01-22T00:34:42.994Z,44.81
2017-01-22T00:35:23.664Z,44.81
2017-01-22T00:36:04.346Z,44.71
2017-01-22T00:36:44.978Z,44.52
2017-01-22T00:37:25.632Z,44.52
2017-01-22T00:38:06.315Z,44.62
2017-01-22T00:38:46.937Z,44.71
2017-01-22T00:39:27.583Z,44.62
2017-01-22T00:40:08.246Z,44.52
2017-01-22T00:40:48.892Z,44.81
2017-01-22T00:41:29.590Z,44.81
2017-01-22T00:42:10.220Z,44.81
2017-01-22T00:42:50.853Z,44.52
2017-01-22T00:43:31.487Z,44.33
2017-01-22T00:44:12.219Z,44.43
2017-01-22T00:44:52.890Z,44.62
2017-01-22T00:45:33.540Z,44.81
2017-01-22T00:46:14.191Z,44.81
2017-01-22T00:46:54.824Z,44.52
2017-01-22T00:47:35.485Z,44.71
2017-01-22T00:48:16.141Z,44.62
2017-01-22T00:48:56.788Z,44.52
2017-01-22T00:49:37.477Z,44.71
2017-01-22T00:50:18.176Z,44.9
2017-01-22T00:50:58.900Z,44.71
2017-01-22T00:51:39.557Z,44.81
2017-01-22T00:52:20.312Z,44.71
2017-01-22T00:53:00.991Z,44.9
2017-01-22T00:53:41.638Z,44.81
2017-01-22T00:54:22.288Z,44.71
2017-01-22T00:55:02.952Z,44.9
2017-01-22T00:55:43.585Z,44.81
2017-01-22T00:56:24.215Z,44.9
2017-01-22T00:57:04.874Z,44.9
2017-01-22T00:57:45.576Z,45
2017-01-22T00:58:26.218Z,45.09
2017-01-22T00:59:06.862Z,44.71
2017-01-22T00:59:47.575Z,44.9
2017-01-22T01:00:28.215Z,44.81
2017-01-22T01:01:08.850Z,44.62
2017-01-22T01:01:49.481Z,44.9
2017-01-22T01:02:30.117Z,44.71
2017-01-22T01:03:10.826Z,44.81
2017-01-22T01:03:51.556Z,45
2017-01-22T01:04:32.195Z,45
2017-01-22T01:05:12.885Z,45
2017-01-22T01:05:53.634Z,44.9
2017-01-22T01:06:34.264Z,45
2017-01-22T01:07:14.881Z,44.9
2017-01-22T01:07:55.557Z,45.09
2017-01-22T01:08:36.197Z,45
2017-01-22T01:09:16.829Z,45.09
2017-01-22T01:09:57.483Z,45.38
2017-01-22T01:10:38.221Z,45
2017-01-22T01:11:18.877Z,44.9
2017-01-22T01:11:59.522Z,44.81
2017-01-22T01:12:40.184Z,44.81
2017-01-22T01:13:20.812Z,44.9
2017-01-22T01:14:01.525Z,44.81
2017-01-22T01:14:42.178Z,44.81
2017-01-22T01:15:22.814Z,45
2017-01-22T01:16:03.464Z,45.09
2017-01-22T01:16:44.156Z,44.81
2017-01-22T01:17:24.808Z,45.09
2017-01-22T01:18:05.487Z,44.9
2017-01-22T01:18:46.112Z,45
2017-01-22T01:19:26.750Z,45
2017-01-22T01:20:07.380Z,45.09
2017-01-22T01:20:48.118Z,45.09
2017-01-22T01:21:28.756Z,45
2017-01-22T01:22:09.382Z,45
2017-01-22T01:22:50.011Z,45.09
2017-01-22T01:23:30.649Z,45
2017-01-22T01:24:11.364Z,45.09
2017-01-22T01:24:52.088Z,45
2017-01-22T01:25:32.817Z,45
2017-01-22T01:26:13.464Z,45.29
2017-01-22T01:26:54.159Z,45.96
2017-01-22T01:27:34.800Z,45.38
2017-01-22T01:28:15.427Z,45
2017-01-22T01:28:56.082Z,45.19
2017-01-22T01:29:36.852Z,45.57
2017-01-22T01:30:17.464Z,45.19
2017-01-22T01:30:58.105Z,45.38
2017-01-22T01:31:38.832Z,45.19
2017-01-22T01:32:19.642Z,45.19
2017-01-22T01:33:00.268Z,45.19
2017-01-22T01:33:40.984Z,45.09
2017-01-22T01:34:21.735Z,45.09
2017-01-22T01:35:02.396Z,45.19
2017-01-22T01:35:43.030Z,45.86
2017-01-22T01:36:23.718Z,45.38
2017-01-22T01:37:04.425Z,45.09
2017-01-22T01:37:44.995Z,45.76
2017-01-22T01:38:25.684Z,45.57
2017-01-22T01:39:06.322Z,45.57
2017-01-22T01:39:46.984Z,45.76
2017-01-22T01:40:27.621Z,45.67
2017-01-22T01:41:08.328Z,45.76
2017-01-22T01:41:48.977Z,45.67
2017-01-22T01:42:29.695Z,45.67
2017-01-22T01:43:10.370Z,45.67
2017-01-22T01:43:51.001Z,45.57
2017-01-22T01:44:31.664Z,45.48
2017-01-22T01:45:12.307Z,45.48
2017-01-22T01:45:52.946Z,45.48
2017-01-22T01:46:33.646Z,45.67
2017-01-22T01:47:14.274Z,45.67
2017-01-22T01:47:54.913Z,45.67
2017-01-22T01:48:35.602Z,45.57
2017-01-22T01:49:16.297Z,45.48
2017-01-22T01:49:56.930Z,45.76
2017-01-22T01:50:37.572Z,45.76
2017-01-22T01:51:18.209Z,45.67
2017-01-22T01:51:58.848Z,45.57
2017-01-22T01:52:39.496Z,45.76
2017-01-22T01:53:20.172Z,45.76
2017-01-22T01:54:00.808Z,45.67
2017-01-22T01:54:41.506Z,45.76
2017-01-22T01:55:22.245Z,45.76
2017-01-22T01:56:02.908Z,45.67
2017-01-22T01:56:43.542Z,45.57
2017-01-22T01:57:24.265Z,45.76
2017-01-22T01:58:05.053Z,45.48
2017-01-22T01:58:45.658Z,45.38
2017-01-22T01:59:26.295Z,45.57
2017-01-22T02:00:06.958Z,45.38
2017-01-22T02:00:47.588Z,45.38
2017-01-22T02:01:28.215Z,45.57
2017-01-22T02:02:08.918Z,45.48
2017-01-22T02:02:49.546Z,45.48
2017-01-22T02:03:30.230Z,45.57
2017-01-22T02:04:10.985Z,45.48
2017-01-22T02:04:51.645Z,45.38
2017-01-22T02:05:32.286Z,45.38
2017-01-22T02:06:12.988Z,45.48
2017-01-22T02:06:53.627Z,45.48
2017-01-22T02:07:34.251Z,45.38
2017-01-22T02:08:14.919Z,45.38
2017-01-22T02:08:55.547Z,45.48
2017-01-22T02:09:36.178Z,45.57
2017-01-22T02:10:16.844Z,45.48
2017-01-22T02:10:57.995Z,45.48
2017-01-22T02:11:38.623Z,45.48
2017-01-22T02:12:19.263Z,45.38
2017-01-22T02:12:59.964Z,45.57
2017-01-22T02:13:40.664Z,45.38
2017-01-22T02:14:21.287Z,45.57
2017-01-22T02:15:01.916Z,45.48
2017-01-22T02:15:42.603Z,45.48
2017-01-22T02:16:23.339Z,45.48
2017-01-22T02:17:03.868Z,45.38
2017-01-22T02:17:44.500Z,45.48
2017-01-22T02:18:25.139Z,45.48
2017-01-22T02:19:05.776Z,45.57
2017-01-22T02:19:46.529Z,45.29
2017-01-22T02:20:27.201Z,45.48
2017-01-22T02:21:07.849Z,45.38
2017-01-22T02:21:48.569Z,45.48
2017-01-22T02:22:29.190Z,45.38
2017-01-22T02:23:09.814Z,45.57
2017-01-22T02:23:50.499Z,45.48
2017-01-22T02:24:31.122Z,45.67
2017-01-22T02:25:11.748Z,45.38
2017-01-22T02:25:52.425Z,45.29
2017-01-22T02:26:33.057Z,45.57
2017-01-22T02:27:13.680Z,45.48
2017-01-22T02:27:54.418Z,45.57
2017-01-22T02:28:35.127Z,45.29
2017-01-22T02:29:15.765Z,45.67
2017-01-22T02:29:56.400Z,45.48
2017-01-22T02:30:37.092Z,45.48
2017-01-22T02:31:17.724Z,45.48
2017-01-22T02:31:58.440Z,45.38
2017-01-22T02:32:39.157Z,45.48
2017-01-22T02:33:19.847Z,45.48
2017-01-22T02:34:00.511Z,45.48
2017-01-22T02:34:41.206Z,45.48
2017-01-22T02:35:21.826Z,45.48
2017-01-22T02:36:02.460Z,45.48
2017-01-22T02:36:43.138Z,45.38
2017-01-22T02:37:23.768Z,45.48
2017-01-22T02:38:04.399Z,45.48
2017-01-22T02:38:45.026Z,45.38
2017-01-22T02:39:25.714Z,45.29
2017-01-22T02:40:06.368Z,45.57
2017-01-22T02:40:46.980Z,45.67
2017-01-22T02:41:27.678Z,45.38
2017-01-22T02:42:08.304Z,45.57
2017-01-22T02:42:48.937Z,45.48
2017-01-22T02:43:29.604Z,45.38
2017-01-22T02:44:10.222Z,45.48
2017-01-22T02:44:50.961Z,45.38
2017-01-22T02:45:31.587Z,45.57
2017-01-22T02:46:12.216Z,45.38
2017-01-22T02:46:52.870Z,45.48
2017-01-22T02:47:33.619Z,45.48
2017-01-22T02:48:14.253Z,45.57
2017-01-22T02:48:54.986Z,45.57
2017-01-22T02:49:35.710Z,45.48
2017-01-22T02:50:16.429Z,45.38
2017-01-22T02:50:57.052Z,45.67
2017-01-22T02:51:37.789Z,45.96
2017-01-22T02:52:18.424Z,45.38
2017-01-22T02:52:59.077Z,45.48
2017-01-22T02:53:39.776Z,45.38
2017-01-22T02:54:20.430Z,45.48
2017-01-22T02:55:01.032Z,45.57
2017-01-22T02:55:41.684Z,45.38
2017-01-22T02:56:22.328Z,45.48
2017-01-22T02:57:02.969Z,45.48
2017-01-22T02:57:43.615Z,45.38
2017-01-22T02:58:24.343Z,45.38
2017-01-22T02:59:04.975Z,45.57
2017-01-22T02:59:45.676Z,45.38
2017-01-22T03:00:26.338Z,45.38
2017-01-22T03:01:07.091Z,45.48
2017-01-22T03:01:47.755Z,45.38
2017-01-22T03:02:28.444Z,45.38
2017-01-22T03:03:09.121Z,45.38
2017-01-22T03:03:49.749Z,45.48
2017-01-22T03:04:30.466Z,45.48
2017-01-22T03:05:11.198Z,45.57
2017-01-22T03:05:51.825Z,45.38
2017-01-22T03:06:32.449Z,45.48
2017-01-22T03:07:13.126Z,45.76
2017-01-22T03:07:53.750Z,45.57
2017-01-22T03:08:34.381Z,45.76
2017-01-22T03:09:15.083Z,45.48
2017-01-22T03:09:55.787Z,45.86
2017-01-22T03:10:36.382Z,45.57
2017-01-22T03:11:17.010Z,45.38
2017-01-22T03:11:57.696Z,45.48
2017-01-22T03:12:38.288Z,45.48
2017-01-22T03:13:18.909Z,45.48
2017-01-22T03:13:59.547Z,45.48
2017-01-22T03:14:40.217Z,45.48
2017-01-22T03:15:20.947Z,45.48
2017-01-22T03:16:01.594Z,45.48
2017-01-22T03:16:42.232Z,45.48
2017-01-22T03:17:22.876Z,45.57
2017-01-22T03:18:03.621Z,45.38
2017-01-22T03:18:44.277Z,45.38
2017-01-22T03:19:24.936Z,45.57
2017-01-22T03:20:05.663Z,45.57
2017-01-22T03:20:46.288Z,45.48
2017-01-22T03:21:26.948Z,45.48
2017-01-22T03:22:07.636Z,45.48
2017-01-22T03:22:48.257Z,45.48
2017-01-22T03:23:28.974Z,45.38
2017-01-22T03:24:09.715Z,45.38
2017-01-22T03:24:50.400Z,45.57
2017-01-22T03:25:31.023Z,45.48
2017-01-22T03:26:11.750Z,45.29
2017-01-22T03:26:52.512Z,45.57
2017-01-22T03:27:33.137Z,45.38
2017-01-22T03:28:13.776Z,45.48
2017-01-22T03:28:54.439Z,45.48
2017-01-22T03:29:35.074Z,45.48
2017-01-22T03:30:15.698Z,45.57
2017-01-22T03:30:56.393Z,45.57
2017-01-22T03:31:37.015Z,45.38
2017-01-22T03:32:17.641Z,45.38
2017-01-22T03:32:58.318Z,45.48
2017-01-22T03:33:38.945Z,45.57
2017-01-22T03:34:20.489Z,45.57
2017-01-22T03:35:01.219Z,45.38
2017-01-22T03:35:41.848Z,45.38
2017-01-22T03:36:22.564Z,45.48
2017-01-22T03:37:03.914Z,45.57
2017-01-22T03:37:44.463Z,45.57
2017-01-22T03:38:25.129Z,45.48
2017-01-22T03:39:05.835Z,45.29
2017-01-22T03:39:46.535Z,45.48
2017-01-22T03:40:27.764Z,45.38
2017-01-22T03:41:11.011Z,45.48
2017-01-22T03:41:51.806Z,45.48
2017-01-22T03:42:32.386Z,45.48
2017-01-22T03:43:13.022Z,45.38
2017-01-22T03:43:53.676Z,45.38
2017-01-22T03:44:34.342Z,45.38
2017-01-22T03:45:14.990Z,45.29
2017-01-22T03:45:55.622Z,45.38
2017-01-22T03:46:36.257Z,45.48
2017-01-22T03:47:16.960Z,45.48
2017-01-22T03:47:57.588Z,45.38
2017-01-22T03:48:38.386Z,45.48
2017-01-22T03:49:19.115Z,45.38
2017-01-22T03:49:59.859Z,45.57
2017-01-22T03:50:40.541Z,45.29
2017-01-22T03:51:21.351Z,45.57
2017-01-22T03:52:02.422Z,45.48
2017-01-22T03:52:42.932Z,45.57
2017-01-22T03:53:23.899Z,45.29
2017-01-22T03:54:04.637Z,45.38
2017-01-22T03:54:45.273Z,45.57
2017-01-22T03:55:25.964Z,45.48
2017-01-22T03:56:06.686Z,45.48
2017-01-22T03:56:47.331Z,45.48
2017-01-22T03:57:27.970Z,45.48
2017-01-22T03:58:08.647Z,45.48
2017-01-22T03:58:49.274Z,45.38
2017-01-22T03:59:29.960Z,45.57
2017-01-22T04:00:10.684Z,45.48
2017-01-22T04:00:51.422Z,45.67
2017-01-22T04:01:32.047Z,45.86
2017-01-22T04:02:12.743Z,45.48
2017-01-22T04:02:53.374Z,45.48
2017-01-22T04:03:33.992Z,45.48
2017-01-22T04:04:14.947Z,45.38
2017-01-22T04:04:55.571Z,45.38
2017-01-22T04:05:36.288Z,45.48
2017-01-22T04:06:16.916Z,45.48
2017-01-22T04:06:57.545Z,45.57
2017-01-22T04:07:38.205Z,45.48
2017-01-22T04:08:18.826Z,45.48
2017-01-22T04:08:59.532Z,45.57
2017-01-22T04:09:40.215Z,45.57
2017-01-22T04:10:20.843Z,45.57
2017-01-22T04:11:01.602Z,45.48
2017-01-22T04:11:42.319Z,45.57
2017-01-22T04:12:22.948Z,45.48
2017-01-22T04:13:03.603Z,45.48
2017-01-22T04:13:44.349Z,45.48
2017-01-22T04:14:25.033Z,45.38
2017-01-22T04:15:05.669Z,45.38
2017-01-22T04:15:46.310Z,45.57
2017-01-22T04:16:26.970Z,45.48
2017-01-22T04:17:07.597Z,45.38
2017-01-22T04:17:48.309Z,45.38
2017-01-22T04:18:29.028Z,45.48
2017-01-22T04:19:09.665Z,45.48
2017-01-22T04:19:50.358Z,45.38
2017-01-22T04:20:31.060Z,45.57
2017-01-22T04:21:11.678Z,45.38
2017-01-22T04:21:52.306Z,45.48
2017-01-22T04:22:32.983Z,45.48
2017-01-22T04:23:13.698Z,45.48
2017-01-22T04:23:54.237Z,45.38
2017-01-22T04:24:34.911Z,45.57
2017-01-22T04:25:15.550Z,45.48
2017-01-22T04:25:56.170Z,45.57
2017-01-22T04:26:36.914Z,45.38
2017-01-22T04:27:17.598Z,45.57
2017-01-22T04:27:58.237Z,45.57
2017-01-22T04:28:38.952Z,45.57
2017-01-22T04:29:19.578Z,45.57
2017-01-22T04:30:00.242Z,45.48
2017-01-22T04:30:40.890Z,45.38
2017-01-22T04:31:21.583Z,45.48
2017-01-22T04:32:02.212Z,45.57
2017-01-22T04:32:42.912Z,45.48
2017-01-22T04:33:23.622Z,45.57
2017-01-22T04:34:04.253Z,45.67
2017-01-22T04:34:44.881Z,45.48
2017-01-22T04:35:25.561Z,45.76
2017-01-22T04:36:06.203Z,45.67
2017-01-22T04:36:46.848Z,45.57
2017-01-22T04:37:27.489Z,45.76
2017-01-22T04:38:08.125Z,45.76
2017-01-22T04:38:48.833Z,45.57
2017-01-22T04:39:29.523Z,45.67
2017-01-22T04:40:10.234Z,45.57
2017-01-22T04:40:50.789Z,45.57
2017-01-22T04:41:31.481Z,45.48
2017-01-22T04:42:12.176Z,45.57
2017-01-22T04:42:52.843Z,45.48
2017-01-22T04:43:33.503Z,45.48
2017-01-22T04:44:14.143Z,45.48
2017-01-22T04:44:54.769Z,45.48
2017-01-22T04:45:35.480Z,45.38
2017-01-22T04:46:16.263Z,45.57
2017-01-22T04:46:56.897Z,45.67
2017-01-22T04:47:37.613Z,45.48
2017-01-22T04:48:18.246Z,45.76
2017-01-22T04:48:58.915Z,45.67
2017-01-22T04:49:39.513Z,45.67
2017-01-22T04:50:20.234Z,45.67
2017-01-22T04:51:00.902Z,45.57
2017-01-22T04:51:41.536Z,45.38
2017-01-22T04:52:22.187Z,45.57
2017-01-22T04:53:02.816Z,45.48
2017-01-22T04:53:43.446Z,45.48
2017-01-22T04:54:24.127Z,45.48
2017-01-22T04:55:04.852Z,45.38
2017-01-22T04:55:45.501Z,45.48
2017-01-22T04:56:26.157Z,45.48
2017-01-22T04:57:06.819Z,45.57
2017-01-22T04:57:47.459Z,45.38
2017-01-22T04:58:29.001Z,45.48
2017-01-22T04:59:09.715Z,45.48
2017-01-22T04:59:50.357Z,45.48
2017-01-22T05:00:31.079Z,45.48
2017-01-22T05:01:11.761Z,45.48
2017-01-22T05:01:52.413Z,45.38
2017-01-22T05:02:33.096Z,45.48
2017-01-22T05:03:13.799Z,45.38
2017-01-22T05:03:54.426Z,45.38
2017-01-22T05:04:35.121Z,45.67
2017-01-22T05:05:15.814Z,45.38
2017-01-22T05:05:56.536Z,45.38
2017-01-22T05:06:37.218Z,45.38
2017-01-22T05:07:17.856Z,45.57
2017-01-22T05:07:58.549Z,45.48
2017-01-22T05:08:39.185Z,45.48
2017-01-22T05:09:19.811Z,45.38
2017-01-22T05:10:00.439Z,45.38
2017-01-22T05:10:41.071Z,45.38
2017-01-22T05:11:21.775Z,45.48
2017-01-22T05:12:02.419Z,45.38
2017-01-22T05:12:43.079Z,45.38
2017-01-22T05:13:23.780Z,45.48
2017-01-22T05:14:04.406Z,45.48
2017-01-22T05:14:45.039Z,45.48
2017-01-22T05:15:25.698Z,45.48
2017-01-22T05:16:06.408Z,45.48
2017-01-22T05:16:47.039Z,45.48
2017-01-22T05:17:27.664Z,45.48
2017-01-22T05:18:08.362Z,45.48
2017-01-22T05:18:48.998Z,45.48
2017-01-22T05:19:29.625Z,45.48
2017-01-22T05:20:10.280Z,45.38
2017-01-22T05:20:50.906Z,45.48
2017-01-22T05:21:32.676Z,45.48
2017-01-22T05:22:13.311Z,45.48
2017-01-22T05:22:53.975Z,45.57
2017-01-22T05:23:34.554Z,45.29
2017-01-22T05:24:15.247Z,45.48
2017-01-22T05:24:55.882Z,45.38
2017-01-22T05:25:36.517Z,45.38
2017-01-22T05:26:17.220Z,45.38
2017-01-22T05:26:57.865Z,45.38
2017-01-22T05:27:38.496Z,45.38
2017-01-22T05:28:19.165Z,45.57
2017-01-22T05:28:59.913Z,45.57
2017-01-22T05:29:40.596Z,45.57
2017-01-22T05:30:21.191Z,45.38
2017-01-22T05:31:01.881Z,45.57
2017-01-22T05:31:42.516Z,45.38
2017-01-22T05:32:23.148Z,45.48
2017-01-22T05:33:03.775Z,45.29
2017-01-22T05:33:44.413Z,45.57
2017-01-22T05:34:25.165Z,45.48
2017-01-22T05:35:05.839Z,45.48
2017-01-22T05:35:46.445Z,45.48
2017-01-22T05:36:27.141Z,45.38
2017-01-22T05:37:07.774Z,45.48
2017-01-22T05:37:48.416Z,45.57
2017-01-22T05:38:29.089Z,45.38
2017-01-22T05:39:09.713Z,45.57
2017-01-22T05:39:50.341Z,45.57
2017-01-22T05:40:31.016Z,45.48
2017-01-22T05:41:11.702Z,45.57
2017-01-22T05:41:52.336Z,45.38
2017-01-22T05:42:32.962Z,45.57
2017-01-22T05:43:13.632Z,45.29
2017-01-22T05:43:54.250Z,45.48
2017-01-22T05:44:34.878Z,45.57
2017-01-22T05:45:15.566Z,45.48
2017-01-22T05:45:56.202Z,45.57
2017-01-22T05:46:36.878Z,45.48
2017-01-22T05:47:17.608Z,45.86
2017-01-22T05:47:58.273Z,45.38
2017-01-22T05:48:38.941Z,45.57
2017-01-22T05:49:19.576Z,45.38
2017-01-22T05:50:00.259Z,45.48
2017-01-22T05:50:40.912Z,45.48
2017-01-22T05:51:21.561Z,45.48
2017-01-22T05:52:02.200Z,45.57
2017-01-22T05:52:42.830Z,45.57
2017-01-22T05:53:23.554Z,45.38
2017-01-22T05:54:04.286Z,45.48
2017-01-22T05:54:44.922Z,45.57
2017-01-22T05:55:25.624Z,45.67
2017-01-22T05:56:06.376Z,45.76
2017-01-22T05:56:47.108Z,45.67
2017-01-22T05:57:27.745Z,45.67
2017-01-22T05:58:08.432Z,45.67
2017-01-22T05:58:49.058Z,45.86
2017-01-22T05:59:29.693Z,45.38
2017-01-22T06:00:10.435Z,45.76
2017-01-22T06:00:51.692Z,45.67
2017-01-22T06:01:32.360Z,45.67
2017-01-22T06:02:12.996Z,45.76
2017-01-22T06:02:53.639Z,45.86
2017-01-22T06:03:34.268Z,45.38
2017-01-22T06:04:14.907Z,45.76
2017-01-22T06:04:55.543Z,45.57
2017-01-22T06:05:36.196Z,45.76
2017-01-22T06:06:16.856Z,45.67
2017-01-22T06:06:57.492Z,45.67
2017-01-22T06:07:38.125Z,45.76
2017-01-22T06:08:18.804Z,45.67
2017-01-22T06:08:59.437Z,45.57
2017-01-22T06:09:40.071Z,45.57
2017-01-22T06:10:20.731Z,45.48
2017-01-22T06:11:01.363Z,45.48
2017-01-22T06:11:41.991Z,45.48
2017-01-22T06:12:22.665Z,45.38
2017-01-22T06:13:03.294Z,45.48
2017-01-22T06:13:43.966Z,45.29
2017-01-22T06:14:24.658Z,45.57
2017-01-22T06:15:05.286Z,45.38
2017-01-22T06:15:45.952Z,45.57
2017-01-22T06:16:26.587Z,45.48
2017-01-22T06:17:07.214Z,45.38
2017-01-22T06:17:47.883Z,45.76
2017-01-22T06:18:28.511Z,46.05
2017-01-22T06:19:09.139Z,45.86
2017-01-22T06:19:49.797Z,46.05
2017-01-22T06:20:30.424Z,45.76
2017-01-22T06:21:11.045Z,45.57
2017-01-22T06:21:51.761Z,45.57
2017-01-22T06:22:32.475Z,45.76
2017-01-22T06:23:13.103Z,45.86
2017-01-22T06:23:53.783Z,45.67
2017-01-22T06:24:34.459Z,45.96
2017-01-22T06:25:15.088Z,45.76
2017-01-22T06:25:55.785Z,45.76
2017-01-22T06:26:36.487Z,45.76
2017-01-22T06:27:17.152Z,45.76
2017-01-22T06:27:57.791Z,45.86
2017-01-22T06:28:38.455Z,46.25
2017-01-22T06:29:19.164Z,45.86
2017-01-22T06:29:59.807Z,46.44
2017-01-22T06:30:40.430Z,45.76
2017-01-22T06:31:21.171Z,46.15
2017-01-22T06:32:01.798Z,46.44
2017-01-22T06:32:42.440Z,46.25
2017-01-22T06:33:23.181Z,46.44
2017-01-22T06:34:03.813Z,45.76
2017-01-22T06:34:44.521Z,46.34
2017-01-22T06:35:25.243Z,46.15
2017-01-22T06:36:05.908Z,46.34
2017-01-22T06:36:46.556Z,46.61
2017-01-22T06:37:27.200Z,46.62
2017-01-22T06:38:07.903Z,46.34
2017-01-22T06:38:48.546Z,46.25
2017-01-22T06:39:29.184Z,46.15
2017-01-22T06:40:09.811Z,46.15
2017-01-22T06:40:50.443Z,45.96
2017-01-22T06:41:31.075Z,45.76
2017-01-22T06:42:11.775Z,45.86
2017-01-22T06:42:52.420Z,45.76
2017-01-22T06:43:33.059Z,46.25
2017-01-22T06:44:13.775Z,46.05
2017-01-22T06:44:54.408Z,45.96
2017-01-22T06:45:35.099Z,45.96
2017-01-22T06:46:15.765Z,46.12
2017-01-22T06:46:56.391Z,46.15
2017-01-22T06:47:37.110Z,46.15
2017-01-22T06:48:17.743Z,46.15
2017-01-22T06:48:58.385Z,46.15
2017-01-22T06:49:39.061Z,46.82
2017-01-22T06:50:19.687Z,46.62
2017-01-22T06:51:00.314Z,46.72
2017-01-22T06:51:41.018Z,46.61
2017-01-22T06:52:21.696Z,46.25
2017-01-22T06:53:02.324Z,46.25
2017-01-22T06:53:42.961Z,46.05
2017-01-22T06:54:23.595Z,46.61
2017-01-22T06:55:04.219Z,46.25
2017-01-22T06:55:44.917Z,46.31
2017-01-22T06:56:25.636Z,46.12
2017-01-22T06:57:06.306Z,46.05
2017-01-22T06:57:46.906Z,46.15
2017-01-22T06:58:27.642Z,46.15
2017-01-22T06:59:08.297Z,45.76
2017-01-22T06:59:48.924Z,45.86
2017-01-22T07:00:29.613Z,45.67
2017-01-22T07:01:10.241Z,45.76
2017-01-22T07:01:50.871Z,45.86
2017-01-22T07:02:31.550Z,45.96
2017-01-22T07:03:12.191Z,45.96
2017-01-22T07:03:52.816Z,45.86
2017-01-22T07:04:33.481Z,45.76
2017-01-22T07:05:14.155Z,46.44
2017-01-22T07:05:54.779Z,46.53
2017-01-22T07:06:35.507Z,46.34
2017-01-22T07:07:16.182Z,46.34
2017-01-22T07:07:56.810Z,46.25
2017-01-22T07:08:37.503Z,46.25
2017-01-22T07:09:18.228Z,46.25
2017-01-22T07:09:58.859Z,46.15
2017-01-22T07:10:39.541Z,46.62
2017-01-22T07:11:20.238Z,46.05
2017-01-22T07:12:00.867Z,46.62
2017-01-22T07:12:41.501Z,46.25
2017-01-22T07:13:22.164Z,46.12
2017-01-22T07:14:02.861Z,46.15
2017-01-22T07:14:43.515Z,46.25
2017-01-22T07:15:24.164Z,46.62
2017-01-22T07:16:04.875Z,46.25
2017-01-22T07:16:45.499Z,46.25
2017-01-22T07:17:26.125Z,46.15
2017-01-22T07:18:06.827Z,46.25
2017-01-22T07:18:47.456Z,46.15
2017-01-22T07:19:28.141Z,46.25
2017-01-22T07:20:08.783Z,45.96
2017-01-22T07:20:49.400Z,46.15
2017-01-22T07:21:30.119Z,46.12
2017-01-22T07:22:10.750Z,46.82
2017-01-22T07:22:51.399Z,46.61
2017-01-22T07:23:32.114Z,46.15
2017-01-22T07:24:12.741Z,46.61
2017-01-22T07:24:53.368Z,46.05
2017-01-22T07:25:34.020Z,46.34
2017-01-22T07:26:14.694Z,46.44
2017-01-22T07:26:55.325Z,46.34
2017-01-22T07:27:35.968Z,46.15
2017-01-22T07:28:16.640Z,46.05
2017-01-22T07:28:57.280Z,46.25
2017-01-22T07:29:37.966Z,46.31
2017-01-22T07:30:18.719Z,46.62
2017-01-22T07:30:59.370Z,46.05
2017-01-22T07:31:39.990Z,46.25
2017-01-22T07:32:20.657Z,46.15
2017-01-22T07:33:01.287Z,46.15
2017-01-22T07:33:41.934Z,46.44
2017-01-22T07:34:22.576Z,46.44
2017-01-22T07:35:03.207Z,45.76
2017-01-22T07:35:43.847Z,46.34
2017-01-22T07:36:24.512Z,46.44
2017-01-22T07:37:05.212Z,46.44
2017-01-22T07:37:45.865Z,45.96
2017-01-22T07:38:26.610Z,46.44
2017-01-22T07:39:07.286Z,46.25
2017-01-22T07:39:47.923Z,46.34
2017-01-22T07:40:28.645Z,46.25
2017-01-22T07:41:09.382Z,45.76
2017-01-22T07:41:50.047Z,46.44
2017-01-22T07:42:30.689Z,46.53
2017-01-22T07:43:11.336Z,46.25
2017-01-22T07:43:51.973Z,46.53
2017-01-22T07:44:32.593Z,46.44
2017-01-22T07:45:13.275Z,46.15
2017-01-22T07:45:53.920Z,46.41
2017-01-22T07:46:34.543Z,46.31
2017-01-22T07:47:15.247Z,46.25
2017-01-22T07:47:55.912Z,46.31
2017-01-22T07:48:36.557Z,46.31
2017-01-22T07:49:17.177Z,46.41
2017-01-22T07:49:57.881Z,46.53
2017-01-22T07:50:38.539Z,46.05
2017-01-22T07:51:19.254Z,46.53
2017-01-22T07:51:59.931Z,46.62
2017-01-22T07:52:40.562Z,46.15
2017-01-22T07:53:21.233Z,46.15
2017-01-22T07:54:01.863Z,46.34
2017-01-22T07:54:42.497Z,46.72
2017-01-22T07:55:23.166Z,46.34
2017-01-22T07:56:03.809Z,46.31
2017-01-22T07:56:44.460Z,46.44
2017-01-22T07:57:25.129Z,46.41
2017-01-22T07:58:05.779Z,46.41
2017-01-22T07:58:46.422Z,46.62
2017-01-22T07:59:27.095Z,46.53
2017-01-22T08:00:07.824Z,46.62
2017-01-22T08:00:48.534Z,46.53
2017-01-22T08:01:29.169Z,46.44
2017-01-22T08:02:09.895Z,46.41
2017-01-22T08:02:50.578Z,46.53
2017-01-22T08:03:31.204Z,46.44
2017-01-22T08:04:11.864Z,46.31
2017-01-22T08:04:52.605Z,46.03
2017-01-22T08:05:33.238Z,46.34
2017-01-22T08:06:13.884Z,46.12
2017-01-22T08:06:54.509Z,46.31
2017-01-22T08:07:35.145Z,46.41
2017-01-22T08:08:15.770Z,46.34
2017-01-22T08:08:56.527Z,46.51
2017-01-22T08:09:37.121Z,46.34
2017-01-22T08:10:17.768Z,46.44
2017-01-22T08:10:58.425Z,46.34
2017-01-22T08:11:39.046Z,46.25
2017-01-22T08:12:19.770Z,46.8
2017-01-22T08:13:00.497Z,46.98
2017-01-22T08:13:41.133Z,46.22
2017-01-22T08:14:21.765Z,46.34
2017-01-22T08:15:02.421Z,46.31
2017-01-22T08:15:43.075Z,46.34
2017-01-22T08:16:23.705Z,46.34
2017-01-22T08:17:04.372Z,46.22
2017-01-22T08:17:45.005Z,46.34
2017-01-22T08:18:25.640Z,46.34
2017-01-22T08:19:06.293Z,46.34
2017-01-22T08:19:47.009Z,46.41
2017-01-22T08:20:27.646Z,46.31
2017-01-22T08:21:08.346Z,46.25
2017-01-22T08:21:48.996Z,46.44
2017-01-22T08:22:29.621Z,46.62
2017-01-22T08:23:10.259Z,46.25
2017-01-22T08:23:50.923Z,46.15
2017-01-22T08:24:31.574Z,45.96
2017-01-22T08:25:12.272Z,46.72
2017-01-22T08:25:52.905Z,46.62
2017-01-22T08:26:33.534Z,46.34
2017-01-22T08:27:14.198Z,46.62
2017-01-22T08:27:54.841Z,46.53
2017-01-22T08:28:35.469Z,46.31
2017-01-22T08:29:16.132Z,46.34
2017-01-22T08:29:56.797Z,46.41
2017-01-22T08:30:37.431Z,46.44
2017-01-22T08:31:18.061Z,46.34
2017-01-22T08:31:58.812Z,46.53
2017-01-22T08:32:39.435Z,46.53
2017-01-22T08:33:20.051Z,46.62
2017-01-22T08:34:00.766Z,46.53
2017-01-22T08:34:41.385Z,46.62
2017-01-22T08:35:22.126Z,46.44
2017-01-22T08:36:02.766Z,46.41
2017-01-22T08:36:43.401Z,46.25
2017-01-22T08:37:24.034Z,46.34
2017-01-22T08:38:04.654Z,46.44
2017-01-22T08:38:45.286Z,46.44
2017-01-22T08:39:25.972Z,46.44
2017-01-22T08:40:06.689Z,46.44
2017-01-22T08:40:47.311Z,46.44
2017-01-22T08:41:27.979Z,46.53
2017-01-22T08:42:08.642Z,46.53
2017-01-22T08:42:49.367Z,46.53
2017-01-22T08:43:30.019Z,46.62
2017-01-22T08:44:10.662Z,46.62
2017-01-22T08:44:51.366Z,46.44